createdAt,value
2018-02-11T00:00:46.388Z,3.46
2018-02-11T00:01:46.625Z,3.53
2018-02-11T00:02:46.912Z,3.47
2018-02-11T00:03:46.578Z,3.43
2018-02-11T00:04:46.549Z,3.47
2018-02-11T00:05:46.535Z,3.52
2018-02-11T00:06:46.507Z,3.47
2018-02-11T00:07:46.220Z,3.49
2018-02-11T00:08:46.467Z,3.54
2018-02-11T00:09:46.173Z,3.5
2018-02-11T00:10:46.150Z,3.49
2018-02-11T00:11:46.391Z,3.49
2018-02-11T00:12:46.421Z,3.52
2018-02-11T00:13:46.350Z,3.58
2018-02-11T00:14:46.323Z,3.5
2018-02-11T00:15:46.042Z,3.57
2018-02-11T00:16:46.587Z,3.57
2018-02-11T00:17:46.256Z,3.53
2018-02-11T00:18:46.231Z,3.58
2018-02-11T00:19:45.950Z,3.58
2018-02-11T00:20:46.185Z,3.5
2018-02-11T00:21:46.422Z,3.58
2018-02-11T00:22:46.184Z,3.6
2018-02-11T00:23:46.113Z,3.49
2018-02-11T00:24:46.091Z,3.58
2018-02-11T00:25:46.069Z,3.49
2018-02-11T00:26:46.043Z,3.58
2018-02-11T00:27:45.765Z,3.5
2018-02-11T00:28:45.732Z,3.52
2018-02-11T00:29:45.980Z,3.5
2018-02-11T00:30:46.217Z,3.54
2018-02-11T00:31:46.196Z,3.54
2018-02-11T00:32:45.649Z,3.6
2018-02-11T00:33:46.146Z,3.58
2018-02-11T00:34:45.862Z,3.54
2018-02-11T00:35:45.842Z,3.5
2018-02-11T00:36:45.818Z,3.49
2018-02-11T00:37:45.795Z,3.64
2018-02-11T00:38:45.769Z,3.61
2018-02-11T00:39:45.752Z,3.61
2018-02-11T00:40:45.720Z,3.58
2018-02-11T00:41:45.699Z,3.62
2018-02-11T00:42:45.413Z,3.62
2018-02-11T00:43:45.923Z,3.57
2018-02-11T00:44:45.892Z,3.53
2018-02-11T00:45:45.344Z,3.6
2018-02-11T00:46:45.320Z,3.6
2018-02-11T00:47:45.562Z,3.53
2018-02-11T00:48:45.800Z,3.62
2018-02-11T00:49:45.251Z,3.6
2018-02-11T00:50:45.491Z,3.61
2018-02-11T00:51:45.468Z,3.62
2018-02-11T00:52:45.707Z,3.67
2018-02-11T00:53:45.467Z,3.67
2018-02-11T00:54:45.665Z,3.72
2018-02-11T00:55:45.413Z,3.68
2018-02-11T00:56:45.615Z,3.72
2018-02-11T00:57:45.070Z,3.68
2018-02-11T00:58:45.050Z,3.76
2018-02-11T00:59:45.024Z,3.62
2018-02-11T01:00:45.264Z,3.72
2018-02-11T01:01:45.237Z,3.75
2018-02-11T01:02:45.476Z,3.76
2018-02-11T01:03:44.926Z,3.75
2018-02-11T01:04:45.167Z,3.78
2018-02-11T01:05:45.406Z,3.78
2018-02-11T01:06:45.391Z,3.71
2018-02-11T01:07:45.371Z,3.75
2018-02-11T01:08:44.815Z,3.7
2018-02-11T01:09:45.320Z,3.78
2018-02-11T01:10:44.770Z,3.78
2018-02-11T01:11:44.745Z,3.72
2018-02-11T01:12:45.451Z,3.76
2018-02-11T01:13:44.701Z,3.78
2018-02-11T01:14:45.199Z,3.67
2018-02-11T01:15:44.918Z,3.6
2018-02-11T01:16:45.157Z,3.6
2018-02-11T01:17:44.869Z,3.57
2018-02-11T01:18:44.852Z,3.6
2018-02-11T01:19:45.086Z,3.53
2018-02-11T01:20:45.067Z,3.57
2018-02-11T01:21:44.518Z,3.58
2018-02-11T01:22:44.495Z,3.5
2018-02-11T01:23:45.003Z,3.44
2018-02-11T01:24:45.102Z,3.44
2018-02-11T01:25:44.946Z,3.4
2018-02-11T01:26:44.675Z,3.31
2018-02-11T01:27:44.640Z,3.3
2018-02-11T01:28:44.613Z,3.28
2018-02-11T01:29:44.596Z,3.23
2018-02-11T01:30:44.578Z,3.23
2018-02-11T01:31:44.549Z,3.18
2018-02-11T01:32:44.526Z,2.97
2018-02-11T01:33:44.764Z,2.94
2018-02-11T01:34:44.474Z,2.73
2018-02-11T01:35:44.457Z,2.73
2018-02-11T01:36:44.430Z,2.67
2018-02-11T01:37:44.141Z,2.63
2018-02-11T01:38:44.124Z,2.58
2018-02-11T01:39:44.413Z,2.59
2018-02-11T01:40:44.596Z,2.7
2018-02-11T01:41:44.313Z,2.71
2018-02-11T01:42:44.549Z,2.64
2018-02-11T01:43:44.002Z,2.67
2018-02-11T01:44:44.500Z,2.67
2018-02-11T01:45:44.483Z,2.73
2018-02-11T01:46:44.192Z,2.74
2018-02-11T01:47:43.905Z,2.74
2018-02-11T01:48:44.423Z,2.81
2018-02-11T01:49:44.379Z,2.76
2018-02-11T01:50:44.371Z,2.74
2018-02-11T01:51:44.074Z,2.71
2018-02-11T01:52:44.053Z,2.71
2018-02-11T01:53:44.023Z,2.74
2018-02-11T01:54:44.005Z,2.76
2018-02-11T01:55:43.715Z,2.79
2018-02-11T01:56:43.690Z,2.77
2018-02-11T01:57:44.192Z,2.87
2018-02-11T01:58:43.640Z,2.79
2018-02-11T01:59:43.879Z,2.88
2018-02-11T02:00:43.853Z,3
2018-02-11T02:01:43.567Z,3
2018-02-11T02:02:44.071Z,2.95
2018-02-11T02:03:43.786Z,3.02
2018-02-11T02:04:43.763Z,3
2018-02-11T02:05:43.782Z,3.05
2018-02-11T02:06:43.977Z,3.06
2018-02-11T02:07:43.950Z,3.1
2018-02-11T02:08:43.662Z,3.12
2018-02-11T02:09:43.380Z,3.06
2018-02-11T02:10:43.876Z,3.06
2018-02-11T02:11:43.857Z,3
2018-02-11T02:12:43.310Z,2.94
2018-02-11T02:13:43.548Z,2.84
2018-02-11T02:14:43.524Z,2.77
2018-02-11T02:15:43.549Z,2.7
2018-02-11T02:16:43.747Z,2.71
2018-02-11T02:17:43.450Z,2.74
2018-02-11T02:18:43.161Z,2.84
2018-02-11T02:19:43.407Z,2.76
2018-02-11T02:20:43.113Z,2.74
2018-02-11T02:21:43.356Z,2.76
2018-02-11T02:22:43.065Z,2.73
2018-02-11T02:23:43.307Z,2.73
2018-02-11T02:24:43.548Z,2.79
2018-02-11T02:25:43.524Z,2.89
2018-02-11T02:26:43.241Z,2.91
2018-02-11T02:27:42.951Z,2.92
2018-02-11T02:28:43.188Z,2.95
2018-02-11T02:29:43.432Z,2.91
2018-02-11T02:30:43.416Z,2.88
2018-02-11T02:31:43.130Z,2.91
2018-02-11T02:32:43.096Z,2.84
2018-02-11T02:33:43.071Z,2.98
2018-02-11T02:34:43.311Z,2.92
2018-02-11T02:35:43.024Z,2.92
2018-02-11T02:36:43.009Z,2.94
2018-02-11T02:37:43.245Z,2.81
2018-02-11T02:38:43.212Z,2.79
2018-02-11T02:39:43.195Z,2.82
2018-02-11T02:40:43.175Z,2.79
2018-02-11T02:41:42.879Z,2.77
2018-02-11T02:42:43.116Z,2.82
2018-02-11T02:43:42.832Z,2.81
2018-02-11T02:44:43.070Z,2.91
2018-02-11T02:45:42.779Z,2.95
2018-02-11T02:46:42.498Z,2.89
2018-02-11T02:47:42.736Z,3
2018-02-11T02:48:42.977Z,2.85
2018-02-11T02:49:42.949Z,3
2018-02-11T02:50:42.665Z,3.02
2018-02-11T02:51:42.640Z,3.07
2018-02-11T02:52:42.621Z,3.06
2018-02-11T02:53:42.920Z,3.09
2018-02-11T02:54:42.565Z,3.1
2018-02-11T02:55:42.816Z,3.18
2018-02-11T02:56:42.577Z,3.16
2018-02-11T02:57:42.230Z,3.12
2018-02-11T02:58:42.472Z,3.18
2018-02-11T02:59:42.452Z,3.16
2018-02-11T03:00:42.694Z,3.15
2018-02-11T03:01:42.397Z,3.25
2018-02-11T03:02:42.373Z,3.21
2018-02-11T03:03:42.350Z,3.25
2018-02-11T03:04:42.596Z,3.2
2018-02-11T03:05:42.041Z,3.13
2018-02-11T03:06:42.292Z,3.2
2018-02-11T03:07:41.990Z,3.12
2018-02-11T03:08:41.971Z,3.15
2018-02-11T03:09:41.943Z,3.1
2018-02-11T03:10:42.445Z,3.12
2018-02-11T03:11:41.897Z,3.15
2018-02-11T03:12:42.337Z,3.23
2018-02-11T03:13:41.849Z,3.16
2018-02-11T03:14:42.089Z,3.16
2018-02-11T03:15:42.329Z,3.2
2018-02-11T03:16:41.784Z,3.24
2018-02-11T03:17:42.018Z,3.13
2018-02-11T03:18:41.999Z,3.25
2018-02-11T03:19:41.972Z,3.18
2018-02-11T03:20:41.947Z,3.27
2018-02-11T03:21:41.921Z,3.27
2018-02-11T03:22:41.639Z,3.3
2018-02-11T03:23:42.138Z,3.25
2018-02-11T03:24:41.592Z,3.24
2018-02-11T03:25:41.565Z,3.24
2018-02-11T03:26:41.544Z,3.44
2018-02-11T03:27:41.834Z,3.42
2018-02-11T03:28:42.034Z,3.52
2018-02-11T03:29:41.472Z,3.52
2018-02-11T03:30:41.449Z,3.57
2018-02-11T03:31:41.686Z,3.62
2018-02-11T03:32:41.921Z,3.61
2018-02-11T03:33:41.375Z,3.6
2018-02-11T03:34:41.879Z,3.57
2018-02-11T03:35:41.637Z,3.54
2018-02-11T03:36:41.305Z,3.61
2018-02-11T03:37:41.543Z,3.57
2018-02-11T03:38:41.522Z,3.49
2018-02-11T03:39:41.497Z,3.52
2018-02-11T03:40:41.736Z,3.54
2018-02-11T03:41:41.186Z,3.44
2018-02-11T03:42:41.428Z,3.53
2018-02-11T03:43:41.139Z,3.49
2018-02-11T03:44:41.392Z,3.6
2018-02-11T03:45:41.624Z,3.62
2018-02-11T03:46:41.070Z,3.57
2018-02-11T03:47:41.308Z,3.46
2018-02-11T03:48:41.287Z,3.52
2018-02-11T03:49:41.529Z,3.5
2018-02-11T03:50:41.502Z,3.49
2018-02-11T03:51:41.213Z,3.52
2018-02-11T03:52:40.928Z,3.54
2018-02-11T03:53:41.174Z,3.61
2018-02-11T03:54:41.144Z,3.65
2018-02-11T03:55:41.117Z,3.54
2018-02-11T03:56:41.360Z,3.52
2018-02-11T03:57:41.343Z,3.6
2018-02-11T03:58:41.052Z,3.64
2018-02-11T03:59:41.030Z,3.54
2018-02-11T04:00:40.741Z,3.6
2018-02-11T04:01:40.981Z,3.58
2018-02-11T04:02:41.225Z,3.67
2018-02-11T04:03:40.676Z,3.78
2018-02-11T04:04:41.173Z,3.8
2018-02-11T04:05:40.626Z,3.88
2018-02-11T04:06:40.860Z,3.88
2018-02-11T04:07:41.103Z,3.9
2018-02-11T04:08:40.820Z,3.97
2018-02-11T04:09:40.798Z,3.92
2018-02-11T04:10:40.772Z,4
2018-02-11T04:11:41.012Z,4
2018-02-11T04:12:40.987Z,3.97
2018-02-11T04:13:40.698Z,3.94
2018-02-11T04:14:40.938Z,3.94
2018-02-11T04:15:40.654Z,3.97
2018-02-11T04:16:40.629Z,3.92
2018-02-11T04:17:40.604Z,3.94
2018-02-11T04:18:40.850Z,3.86
2018-02-11T04:19:40.822Z,3.82
2018-02-11T04:20:40.808Z,3.89
2018-02-11T04:21:40.250Z,3.86
2018-02-11T04:22:40.493Z,3.83
2018-02-11T04:23:40.783Z,3.76
2018-02-11T04:24:40.445Z,3.78
2018-02-11T04:25:40.424Z,3.71
2018-02-11T04:26:40.134Z,3.67
2018-02-11T04:27:40.114Z,3.7
2018-02-11T04:28:40.349Z,3.64
2018-02-11T04:29:40.380Z,3.64
2018-02-11T04:30:40.573Z,3.6
2018-02-11T04:31:40.285Z,3.64
2018-02-11T04:32:39.990Z,3.64
2018-02-11T04:33:40.229Z,3.71
2018-02-11T04:34:40.468Z,3.78
2018-02-11T04:35:40.184Z,3.78
2018-02-11T04:36:40.426Z,3.71
2018-02-11T04:37:40.141Z,3.64
2018-02-11T04:38:39.901Z,3.62
2018-02-11T04:39:39.830Z,3.57
2018-02-11T04:40:40.333Z,3.57
2018-02-11T04:41:40.051Z,3.58
2018-02-11T04:42:40.285Z,3.61
2018-02-11T04:43:39.992Z,3.46
2018-02-11T04:44:39.709Z,3.47
2018-02-11T04:45:40.211Z,3.42
2018-02-11T04:46:40.187Z,3.39
2018-02-11T04:47:40.163Z,3.43
2018-02-11T04:48:39.932Z,3.36
2018-02-11T04:49:39.859Z,3.36
2018-02-11T04:50:40.101Z,3.42
2018-02-11T04:51:39.803Z,3.42
2018-02-11T04:52:39.789Z,3.42
2018-02-11T04:53:40.028Z,3.52
2018-02-11T04:54:39.474Z,3.47
2018-02-11T04:55:39.722Z,3.49
2018-02-11T04:56:39.952Z,3.5
2018-02-11T04:57:39.928Z,3.54
2018-02-11T04:58:39.379Z,3.47
2018-02-11T04:59:39.621Z,3.43
2018-02-11T05:00:39.858Z,3.5
2018-02-11T05:01:39.567Z,3.5
2018-02-11T05:02:39.553Z,3.52
2018-02-11T05:03:39.571Z,3.52
2018-02-11T05:04:39.500Z,3.42
2018-02-11T05:05:39.210Z,3.42
2018-02-11T05:06:39.451Z,3.42
2018-02-11T05:07:39.176Z,3.39
2018-02-11T05:08:39.144Z,3.43
2018-02-11T05:09:39.118Z,3.42
2018-02-11T05:10:39.618Z,3.52
2018-02-11T05:11:39.336Z,3.53
2018-02-11T05:12:39.519Z,3.6
2018-02-11T05:13:39.548Z,3.57
2018-02-11T05:14:39.262Z,3.61
2018-02-11T05:15:39.497Z,3.68
2018-02-11T05:16:39.215Z,3.67
2018-02-11T05:17:39.190Z,3.64
2018-02-11T05:18:38.906Z,3.65
2018-02-11T05:19:39.142Z,3.68
2018-02-11T05:20:39.385Z,3.64
2018-02-11T05:21:39.095Z,3.8
2018-02-11T05:22:39.067Z,3.72
2018-02-11T05:23:39.309Z,3.75
2018-02-11T05:24:38.760Z,3.82
2018-02-11T05:25:39.269Z,3.7
2018-02-11T05:26:38.708Z,3.65
2018-02-11T05:27:39.213Z,3.64
2018-02-11T05:28:39.191Z,3.61
2018-02-11T05:29:38.902Z,3.5
2018-02-11T05:30:39.141Z,3.54
2018-02-11T05:31:38.862Z,3.49
2018-02-11T05:32:39.091Z,3.43
2018-02-11T05:33:39.077Z,3.42
2018-02-11T05:34:38.525Z,3.42
2018-02-11T05:35:38.777Z,3.31
2018-02-11T05:36:38.735Z,3.24
2018-02-11T05:37:38.976Z,3.25
2018-02-11T05:38:38.685Z,3.28
2018-02-11T05:39:38.715Z,3.25
2018-02-11T05:40:38.379Z,3.3
2018-02-11T05:41:38.615Z,3.33
2018-02-11T05:42:38.593Z,3.25
2018-02-11T05:43:38.308Z,3.28
2018-02-11T05:44:38.808Z,3.27
2018-02-11T05:45:38.518Z,3.21
2018-02-11T05:46:38.238Z,3.23
2018-02-11T05:47:38.739Z,3.13
2018-02-11T05:48:38.186Z,3.18
2018-02-11T05:49:38.475Z,3.2
2018-02-11T05:50:38.663Z,3.3
2018-02-11T05:51:38.379Z,3.23
2018-02-11T05:52:38.091Z,3.24
2018-02-11T05:53:38.069Z,3.25
2018-02-11T05:54:38.384Z,3.21
2018-02-11T05:55:38.280Z,3.24
2018-02-11T05:56:38.527Z,3.3
2018-02-11T05:57:38.494Z,3.23
2018-02-11T05:58:38.208Z,3.28
2018-02-11T05:59:38.498Z,3.25
2018-02-11T06:00:38.203Z,3.27
2018-02-11T06:01:38.153Z,3.25
2018-02-11T06:02:37.848Z,3.34
2018-02-11T06:03:38.090Z,3.33
2018-02-11T06:04:38.064Z,3.27
2018-02-11T06:05:38.044Z,3.36
2018-02-11T06:06:38.289Z,3.39
2018-02-11T06:07:37.996Z,3.43
2018-02-11T06:08:37.985Z,3.52
2018-02-11T06:09:38.204Z,3.44
2018-02-11T06:10:38.184Z,3.43
2018-02-11T06:11:38.163Z,3.42
2018-02-11T06:12:37.611Z,3.42
2018-02-11T06:13:37.893Z,3.42
2018-02-11T06:14:37.830Z,3.46
2018-02-11T06:15:37.541Z,3.4
2018-02-11T06:16:37.793Z,3.4
2018-02-11T06:17:37.756Z,3.42
2018-02-11T06:18:37.468Z,3.44
2018-02-11T06:19:37.448Z,3.49
2018-02-11T06:20:38.003Z,3.46
2018-02-11T06:21:37.661Z,3.43
2018-02-11T06:22:37.377Z,3.49
2018-02-11T06:23:37.635Z,3.4
2018-02-11T06:24:37.590Z,3.42
2018-02-11T06:25:37.309Z,3.39
2018-02-11T06:26:37.545Z,3.44
2018-02-11T06:27:37.269Z,3.54
2018-02-11T06:28:37.770Z,3.42
2018-02-11T06:29:37.474Z,3.44
2018-02-11T06:30:37.498Z,3.46
2018-02-11T06:31:37.466Z,3.5
2018-02-11T06:32:37.137Z,3.52
2018-02-11T06:33:37.376Z,3.52
2018-02-11T06:34:37.354Z,3.54
2018-02-11T06:35:37.328Z,3.54
2018-02-11T06:36:37.311Z,3.47
2018-02-11T06:37:37.020Z,3.46
2018-02-11T06:38:37.254Z,3.54
2018-02-11T06:39:37.235Z,3.49
2018-02-11T06:40:37.213Z,3.6
2018-02-11T06:41:36.926Z,3.53
2018-02-11T06:42:37.433Z,3.58
2018-02-11T06:43:37.143Z,3.6
2018-02-11T06:44:36.855Z,3.62
2018-02-11T06:45:36.834Z,3.54
2018-02-11T06:46:36.932Z,3.6
2018-02-11T06:47:37.316Z,3.61
2018-02-11T06:48:37.021Z,3.62
2018-02-11T06:49:36.739Z,3.57
2018-02-11T06:50:37.027Z,3.72
2018-02-11T06:51:37.210Z,3.61
2018-02-11T06:52:36.928Z,3.58
2018-02-11T06:53:36.929Z,3.58
2018-02-11T06:54:36.624Z,3.53
2018-02-11T06:55:36.870Z,3.6
2018-02-11T06:56:36.870Z,3.6
2018-02-11T06:57:36.822Z,3.53
2018-02-11T06:58:36.784Z,3.6
2018-02-11T06:59:37.036Z,3.6
2018-02-11T07:00:36.476Z,3.62
2018-02-11T07:01:36.976Z,3.6
2018-02-11T07:02:36.695Z,3.6
2018-02-11T07:03:36.666Z,3.62
2018-02-11T07:04:36.378Z,3.53
2018-02-11T07:05:36.900Z,3.54
2018-02-11T07:06:36.345Z,3.58
2018-02-11T07:07:36.843Z,3.68
2018-02-11T07:08:36.814Z,3.71
2018-02-11T07:09:36.786Z,3.61
2018-02-11T07:10:36.781Z,3.6
2018-02-11T07:11:36.481Z,3.75
2018-02-11T07:12:36.728Z,3.76
2018-02-11T07:13:36.190Z,3.64
2018-02-11T07:14:36.690Z,3.64
2018-02-11T07:15:36.391Z,3.71
2018-02-11T07:16:36.357Z,3.72
2018-02-11T07:17:36.072Z,3.72
2018-02-11T07:18:36.583Z,3.78
2018-02-11T07:19:36.299Z,3.71
2018-02-11T07:20:36.262Z,3.76
2018-02-11T07:21:36.298Z,3.75
2018-02-11T07:22:36.225Z,3.86
2018-02-11T07:23:35.928Z,3.86
2018-02-11T07:24:36.187Z,3.76
2018-02-11T07:25:36.147Z,3.8
2018-02-11T07:26:36.399Z,3.85
2018-02-11T07:27:36.368Z,3.85
2018-02-11T07:28:36.079Z,3.85
2018-02-11T07:29:36.053Z,3.88
2018-02-11T07:30:36.033Z,3.9
2018-02-11T07:31:35.792Z,3.88
2018-02-11T07:32:35.990Z,3.76
2018-02-11T07:33:35.712Z,3.7
2018-02-11T07:34:36.235Z,3.7
2018-02-11T07:35:35.646Z,3.7
2018-02-11T07:36:35.889Z,3.78
2018-02-11T07:37:36.136Z,3.67
2018-02-11T07:38:35.850Z,3.7
2018-02-11T07:39:35.554Z,3.75
2018-02-11T07:40:35.796Z,3.64
2018-02-11T07:41:36.085Z,3.72
2018-02-11T07:42:35.747Z,3.76
2018-02-11T07:43:35.724Z,3.64
2018-02-11T07:44:35.697Z,3.64
2018-02-11T07:45:36.017Z,3.68
2018-02-11T07:46:35.914Z,3.75
2018-02-11T07:47:35.368Z,3.7
2018-02-11T07:48:35.619Z,3.68
2018-02-11T07:49:35.848Z,3.65
2018-02-11T07:50:35.564Z,3.71
2018-02-11T07:51:35.271Z,3.68
2018-02-11T07:52:35.511Z,3.65
2018-02-11T07:53:35.550Z,3.67
2018-02-11T07:54:35.210Z,3.71
2018-02-11T07:55:35.449Z,3.71
2018-02-11T07:56:35.690Z,3.78
2018-02-11T07:57:35.398Z,3.75
2018-02-11T07:58:35.123Z,3.75
2018-02-11T07:59:35.084Z,3.65
2018-02-11T08:00:35.329Z,3.75
2018-02-11T08:01:35.299Z,3.62
2018-02-11T08:02:35.279Z,3.67
2018-02-11T08:03:35.516Z,3.68
2018-02-11T08:04:35.533Z,3.62
2018-02-11T08:05:35.208Z,3.76
2018-02-11T08:06:35.186Z,3.75
2018-02-11T08:07:35.431Z,3.62
2018-02-11T08:08:35.138Z,3.76
2018-02-11T08:09:35.382Z,3.62
2018-02-11T08:10:35.100Z,3.71
2018-02-11T08:11:35.066Z,3.68
2018-02-11T08:12:35.310Z,3.75
2018-02-11T08:13:35.027Z,3.76
2018-02-11T08:14:35.000Z,3.68
2018-02-11T08:15:34.708Z,3.78
2018-02-11T08:16:34.684Z,3.79
2018-02-11T08:17:34.927Z,3.79
2018-02-11T08:18:35.164Z,3.75
2018-02-11T08:19:34.619Z,3.76
2018-02-11T08:20:34.857Z,3.75
2018-02-11T08:21:34.832Z,3.7
2018-02-11T08:22:34.595Z,3.76
2018-02-11T08:23:35.058Z,3.76
2018-02-11T08:24:34.810Z,3.75
2018-02-11T08:25:34.758Z,3.79
2018-02-11T08:26:34.715Z,3.83
2018-02-11T08:27:34.960Z,3.83
2018-02-11T08:28:34.405Z,3.86
2018-02-11T08:29:34.378Z,3.89
2018-02-11T08:30:34.622Z,3.83
2018-02-11T08:31:34.861Z,3.86
2018-02-11T08:32:34.621Z,3.82
2018-02-11T08:33:34.551Z,3.83
2018-02-11T08:34:34.791Z,3.9
2018-02-11T08:35:34.501Z,3.89
2018-02-11T08:36:34.484Z,3.94
2018-02-11T08:37:34.732Z,3.94
2018-02-11T08:38:34.180Z,3.96
2018-02-11T08:39:34.414Z,3.97
2018-02-11T08:40:34.655Z,3.94
2018-02-11T08:41:34.370Z,3.94
2018-02-11T08:42:34.396Z,3.97
2018-02-11T08:43:34.323Z,3.96
2018-02-11T08:44:34.296Z,3.98
2018-02-11T08:45:34.273Z,3.96
2018-02-11T08:46:34.256Z,3.94
2018-02-11T08:47:34.223Z,3.97
2018-02-11T08:48:34.466Z,3.97
2018-02-11T08:49:33.921Z,3.98
2018-02-11T08:50:34.155Z,3.98
2018-02-11T08:51:34.133Z,3.94
2018-02-11T08:52:34.165Z,3.9
2018-02-11T08:53:34.360Z,3.97
2018-02-11T08:54:34.066Z,3.97
2018-02-11T08:55:34.041Z,3.98
2018-02-11T08:56:34.021Z,3.96
2018-02-11T08:57:34.259Z,4
2018-02-11T08:58:34.232Z,4
2018-02-11T08:59:33.947Z,3.98
2018-02-11T09:00:34.190Z,4.04
2018-02-11T09:01:33.912Z,4.08
2018-02-11T09:02:34.199Z,4.12
2018-02-11T09:03:34.147Z,4.08
2018-02-11T09:04:33.837Z,4.07
2018-02-11T09:05:33.817Z,4.04
2018-02-11T09:06:34.047Z,4.1
2018-02-11T09:07:33.764Z,4.04
2018-02-11T09:08:33.743Z,4.04
2018-02-11T09:09:33.713Z,4.1
2018-02-11T09:10:33.695Z,4.14
2018-02-11T09:11:33.670Z,4.08
2018-02-11T09:12:33.392Z,4.1
2018-02-11T09:13:33.828Z,4.07
2018-02-11T09:14:33.865Z,4.15
2018-02-11T09:15:33.584Z,4.08
2018-02-11T09:16:33.854Z,4.14
2018-02-11T09:17:33.810Z,4.19
2018-02-11T09:18:33.519Z,4.16
2018-02-11T09:19:33.230Z,4.15
2018-02-11T09:20:33.728Z,4.19
2018-02-11T09:21:33.442Z,4.14
2018-02-11T09:22:33.423Z,4.15
2018-02-11T09:23:33.184Z,4.15
2018-02-11T09:24:33.112Z,4.19
2018-02-11T09:25:33.358Z,4.24
2018-02-11T09:26:33.067Z,4.33
2018-02-11T09:27:33.042Z,4.33
2018-02-11T09:28:33.281Z,4.37
2018-02-11T09:29:33.516Z,4.32
2018-02-11T09:30:33.240Z,4.37
2018-02-11T09:31:33.222Z,4.47
2018-02-11T09:32:33.193Z,4.46
2018-02-11T09:33:33.223Z,4.51
2018-02-11T09:34:33.153Z,4.54
2018-02-11T09:35:32.860Z,4.47
2018-02-11T09:36:33.103Z,4.55
2018-02-11T09:37:33.342Z,4.59
2018-02-11T09:38:32.793Z,4.55
2018-02-11T09:39:33.303Z,4.57
2018-02-11T09:40:33.012Z,4.58
2018-02-11T09:41:32.990Z,4.54
2018-02-11T09:42:33.242Z,4.54
2018-02-11T09:43:33.259Z,4.58
2018-02-11T09:44:33.187Z,4.55
2018-02-11T09:45:32.900Z,4.55
2018-02-11T09:46:32.875Z,4.61
2018-02-11T09:47:32.597Z,4.52
2018-02-11T09:48:32.840Z,4.61
2018-02-11T09:49:33.077Z,4.61
2018-02-11T09:50:32.796Z,4.61
2018-02-11T09:51:32.775Z,4.61
2018-02-11T09:52:33.008Z,4.65
2018-02-11T09:53:32.774Z,4.67
2018-02-11T09:54:32.705Z,4.62
2018-02-11T09:55:32.702Z,4.67
2018-02-11T09:56:32.675Z,4.64
2018-02-11T09:57:32.958Z,4.73
2018-02-11T09:58:32.665Z,4.72
2018-02-11T09:59:32.329Z,4.72
2018-02-11T10:00:32.567Z,4.73
2018-02-11T10:01:32.282Z,4.73
2018-02-11T10:02:32.525Z,4.7
2018-02-11T10:03:32.503Z,4.75
2018-02-11T10:04:32.768Z,4.75
2018-02-11T10:05:32.195Z,4.79
2018-02-11T10:06:32.708Z,4.77
2018-02-11T10:07:32.414Z,4.75
2018-02-11T10:08:32.131Z,4.92
2018-02-11T10:09:32.369Z,4.91
2018-02-11T10:10:32.351Z,4.86
2018-02-11T10:11:32.599Z,4.99
2018-02-11T10:12:32.039Z,5.01
2018-02-11T10:13:32.280Z,5.01
2018-02-11T10:14:32.258Z,4.95
2018-02-11T10:15:31.974Z,5.01
2018-02-11T10:16:32.478Z,5.04
2018-02-11T10:17:32.456Z,5.04
2018-02-11T10:18:32.445Z,5.14
2018-02-11T10:19:32.415Z,5.19
2018-02-11T10:20:31.871Z,5.17
2018-02-11T10:21:32.370Z,5.32
2018-02-11T10:22:32.085Z,5.48
2018-02-11T10:23:32.322Z,5.5
2018-02-11T10:24:31.782Z,5.63
2018-02-11T10:25:32.023Z,5.6
2018-02-11T10:26:32.001Z,5.71
2018-02-11T10:27:31.992Z,5.67
2018-02-11T10:28:31.960Z,5.66
2018-02-11T10:29:32.201Z,5.7
2018-02-11T10:30:31.913Z,5.7
2018-02-11T10:31:32.159Z,5.89
2018-02-11T10:32:31.875Z,5.93
2018-02-11T10:33:31.851Z,6.09
2018-02-11T10:34:31.838Z,6.43
2018-02-11T10:35:31.599Z,6.68
2018-02-11T10:36:31.529Z,7.12
2018-02-11T10:37:32.035Z,6.99
2018-02-11T10:38:31.494Z,6.98
2018-02-11T10:39:31.519Z,7.19
2018-02-11T10:40:31.716Z,7.45
2018-02-11T10:41:31.438Z,7.69
2018-02-11T10:42:31.944Z,7.74
2018-02-11T10:43:31.923Z,7.67
2018-02-11T10:44:31.902Z,7.89
2018-02-11T10:45:31.888Z,7.85
2018-02-11T10:46:31.862Z,8.11
2018-02-11T10:47:31.592Z,8.37
2018-02-11T10:48:31.305Z,8.21
2018-02-11T10:49:31.598Z,8.02
2018-02-11T10:50:31.531Z,8
2018-02-11T10:51:31.513Z,7.85
2018-02-11T10:52:31.521Z,7.85
2018-02-11T10:53:31.485Z,7.63
2018-02-11T10:54:31.552Z,7.67
2018-02-11T10:55:31.448Z,7.74
2018-02-11T10:56:31.426Z,7.74
2018-02-11T10:57:31.674Z,7.63
2018-02-11T10:58:31.399Z,7.45
2018-02-11T10:59:31.376Z,7.59
2018-02-11T11:00:31.362Z,7.75
2018-02-11T11:01:31.387Z,7.77
2018-02-11T11:02:31.322Z,7.84
2018-02-11T11:03:31.565Z,7.79
2018-02-11T11:04:31.032Z,7.84
2018-02-11T11:05:31.019Z,7.89
2018-02-11T11:06:31.260Z,7.93
2018-02-11T11:07:31.245Z,7.97
2018-02-11T11:08:31.230Z,8.2
2018-02-11T11:09:31.471Z,8.42
2018-02-11T11:10:31.190Z,8.35
2018-02-11T11:11:31.439Z,8.21
2018-02-11T11:12:31.426Z,8.07
2018-02-11T11:13:31.348Z,7.99
2018-02-11T11:14:30.855Z,7.82
2018-02-11T11:15:31.364Z,7.79
2018-02-11T11:16:31.347Z,7.72
2018-02-11T11:17:31.335Z,7.69
2018-02-11T11:18:30.790Z,7.69
2018-02-11T11:19:30.771Z,7.72
2018-02-11T11:20:31.336Z,7.71
2018-02-11T11:21:30.746Z,7.74
2018-02-11T11:22:30.990Z,7.71
2018-02-11T11:23:30.704Z,7.62
2018-02-11T11:24:31.221Z,7.56
2018-02-11T11:25:30.668Z,7.5
2018-02-11T11:26:31.177Z,7.5
2018-02-11T11:27:30.632Z,7.41
2018-02-11T11:28:30.902Z,7.44
2018-02-11T11:29:30.860Z,7.4
2018-02-11T11:30:30.626Z,7.35
2018-02-11T11:31:31.169Z,7.31
2018-02-11T11:32:30.539Z,7.29
2018-02-11T11:33:30.782Z,7.32
2018-02-11T11:34:30.766Z,7.34
2018-02-11T11:35:30.749Z,7.29
2018-02-11T11:36:30.991Z,7.27
2018-02-11T11:37:30.444Z,7.27
2018-02-11T11:38:30.699Z,7.29
2018-02-11T11:39:30.407Z,7.27
2018-02-11T11:40:30.964Z,7.34
2018-02-11T11:41:30.370Z,7.32
2018-02-11T11:42:30.615Z,7.22
2018-02-11T11:43:30.857Z,7.13
2018-02-11T11:44:31.031Z,7.07
2018-02-11T11:45:30.303Z,7.02
2018-02-11T11:46:30.816Z,7.05
2018-02-11T11:47:30.531Z,6.98
2018-02-11T11:48:30.242Z,6.97
2018-02-11T11:49:30.227Z,7.02
2018-02-11T11:50:30.460Z,6.99
2018-02-11T11:51:30.450Z,6.87
2018-02-11T11:52:30.437Z,6.87
2018-02-11T11:53:30.407Z,6.95
2018-02-11T11:54:30.671Z,6.9
2018-02-11T11:55:30.360Z,6.95
2018-02-11T11:56:30.394Z,6.95
2018-02-11T11:57:30.642Z,6.86
2018-02-11T11:58:30.046Z,6.89
2018-02-11T11:59:30.551Z,6.71
2018-02-11T12:00:30.544Z,6.81
2018-02-11T12:01:30.528Z,6.73
2018-02-11T12:02:30.239Z,6.79
2018-02-11T12:03:30.245Z,6.8
2018-02-11T12:04:30.460Z,6.81
2018-02-11T12:05:30.174Z,6.79
2018-02-11T12:06:30.426Z,6.77
2018-02-11T12:07:30.142Z,6.76
2018-02-11T12:08:30.113Z,6.77
2018-02-11T12:09:30.160Z,6.8
2018-02-11T12:10:30.337Z,6.79
2018-02-11T12:11:30.046Z,6.79
2018-02-11T12:12:30.309Z,6.84
2018-02-11T12:13:30.013Z,6.83
2018-02-11T12:14:30.012Z,6.91
2018-02-11T12:15:29.705Z,6.95
2018-02-11T12:16:30.220Z,6.99
2018-02-11T12:17:29.939Z,7.02
2018-02-11T12:18:30.177Z,6.98
2018-02-11T12:19:29.640Z,7.04
2018-02-11T12:20:30.157Z,7.01
2018-02-11T12:21:29.862Z,6.97
2018-02-11T12:22:30.115Z,7.05
2018-02-11T12:23:29.824Z,6.97
2018-02-11T12:24:29.828Z,6.99
2018-02-11T12:25:30.062Z,7.07
2018-02-11T12:26:29.516Z,7.04
2018-02-11T12:27:29.740Z,6.98
2018-02-11T12:28:29.735Z,7.05
2018-02-11T12:29:29.984Z,6.98
2018-02-11T12:30:29.709Z,7.01
2018-02-11T12:31:29.930Z,6.98
2018-02-11T12:32:29.664Z,6.9
2018-02-11T12:33:29.632Z,6.79
2018-02-11T12:34:29.886Z,6.87
2018-02-11T12:35:29.604Z,6.99
2018-02-11T12:36:29.776Z,7.07
2018-02-11T12:37:29.294Z,7.34
2018-02-11T12:38:29.532Z,7.4
2018-02-11T12:39:29.903Z,7.69
2018-02-11T12:40:29.494Z,7.92
2018-02-11T12:41:29.734Z,7.84
2018-02-11T12:42:29.241Z,7.72
2018-02-11T12:43:29.701Z,7.74
2018-02-11T12:44:29.426Z,7.72
2018-02-11T12:45:29.668Z,7.58
2018-02-11T12:46:29.393Z,7.5
2018-02-11T12:47:29.365Z,7.44
2018-02-11T12:48:29.345Z,7.32
2018-02-11T12:49:29.071Z,7.32
2018-02-11T12:50:29.577Z,7.24
2018-02-11T12:51:29.296Z,7.31
2018-02-11T12:52:29.327Z,7.23
2018-02-11T12:53:29.534Z,7.32
2018-02-11T12:54:29.256Z,7.26
2018-02-11T12:55:28.967Z,7.16
2018-02-11T12:56:29.207Z,7.26
2018-02-11T12:57:29.453Z,7.22
2018-02-11T12:58:29.183Z,7.27
2018-02-11T12:59:29.159Z,7.29
2018-02-11T13:00:29.138Z,7.27
2018-02-11T13:01:29.126Z,7.35
2018-02-11T13:02:29.358Z,7.41
2018-02-11T13:03:29.077Z,7.35
2018-02-11T13:04:29.064Z,7.45
2018-02-11T13:05:28.786Z,7.58
2018-02-11T13:06:29.032Z,7.58
2018-02-11T13:07:29.014Z,7.49
2018-02-11T13:08:29.259Z,7.45
2018-02-11T13:09:29.244Z,7.53
2018-02-11T13:10:29.220Z,7.53
2018-02-11T13:11:28.946Z,7.6
2018-02-11T13:12:29.193Z,7.66
2018-02-11T13:13:29.156Z,7.74
2018-02-11T13:14:28.619Z,7.62
2018-02-11T13:15:29.138Z,7.74
2018-02-11T13:16:28.851Z,7.72
2018-02-11T13:17:29.101Z,7.72
2018-02-11T13:18:28.807Z,7.6
2018-02-11T13:19:28.818Z,7.58
2018-02-11T13:20:29.042Z,7.62
2018-02-11T13:21:28.495Z,7.66
2018-02-11T13:22:28.477Z,7.53